Time;durP1;ratioP1;P1;durP2;ratioP2;P2;SDS_P1;SDS_P2;PMS_P1;PMS_P2;Temp;Humidity;BMP_temperature;BMP_pressure;BME280_temperature;BME280_humidity;BME280_pressure;Samples;Min_cycle;Max_cycle;Signal;HPM_P1;HPM_P2
2023/06/13 00:00:32;;;;;;;11.02;2.90;;;;;;;15.82;64.39;100201.94;5105246;28;20024;-73
2023/06/13 00:02:58;;;;;;;6.50;2.75;;;;;;;15.82;64.45;100194.66;5087598;28;20031;-72
2023/06/13 00:05:24;;;;;;;4.03;2.28;;;;;;;15.71;64.75;100188.78;5110940;28;20034;-72
2023/06/13 00:07:50;;;;;;;4.45;2.47;;;;;;;15.70;64.58;100187.06;5110977;28;20523;-72
2023/06/13 00:10:16;;;;;;;4.57;2.63;;;;;;;15.65;65.04;100175.94;5102757;28;20035;-72
2023/06/13 00:12:44;;;;;;;3.45;2.47;;;;;;;15.67;65.04;100177.44;5108702;28;20584;-73
2023/06/13 00:15:11;;;;;;;4.90;2.75;;;;;;;15.65;65.51;100175.94;5104184;28;20056;-71
2023/06/13 00:17:38;;;;;;;3.65;2.17;;;;;;;15.61;65.69;100169.19;5108625;28;20084;-72
2023/06/13 00:20:05;;;;;;;7.13;2.38;;;;;;;15.62;65.81;100196.03;5092236;28;20028;-72
2023/06/13 00:22:31;;;;;;;3.65;2.38;;;;;;;15.60;65.77;100186.41;5088734;28;20032;-72
2023/06/13 00:24:56;;;;;;;4.00;2.50;;;;;;;15.56;65.70;100180.50;5103085;28;20027;-71
2023/06/13 00:27:22;;;;;;;3.92;1.98;;;;;;;15.62;66.02;100189.78;5105015;28;20130;-72
2023/06/13 00:29:48;;;;;;;5.72;2.40;;;;;;;15.60;65.87;100184.53;5102371;28;20062;-72
2023/06/13 00:32:13;;;;;;;2.90;2.47;;;;;;;15.59;65.93;100177.47;5106781;28;20024;-72
2023/06/13 00:34:39;;;;;;;4.10;2.75;;;;;;;15.59;65.92;100182.00;5102139;28;20495;-72
2023/06/13 00:37:05;;;;;;;2.83;2.00;;;;;;;15.59;65.84;100177.47;5100209;28;20028;-71
2023/06/13 00:39:30;;;;;;;5.05;2.53;;;;;;;15.56;65.99;100175.09;5108223;28;20498;-72
2023/06/13 00:41:56;;;;;;;4.82;2.47;;;;;;;15.53;66.46;100170.03;5099788;28;20027;-72
2023/06/13 00:44:21;;;;;;;3.22;2.60;;;;;;;15.51;66.33;100168.50;5100277;28;20028;-71
2023/06/13 00:46:47;;;;;;;4.10;2.72;;;;;;;15.48;66.53;100172.38;5081685;28;20058;-72
2023/06/13 00:49:15;;;;;;;3.92;2.30;;;;;;;15.46;66.64;100160.91;5100424;28;20085;-72
2023/06/13 00:51:44;;;;;;;4.13;2.55;;;;;;;15.43;66.53;100155.84;5108100;28;20023;-72
2023/06/13 00:54:13;;;;;;;2.80;2.42;;;;;;;15.51;66.50;100158.53;5101458;28;20102;-72
2023/06/13 00:56:40;;;;;;;3.45;2.38;;;;;;;15.44;66.53;100159.38;5103678;28;20474;-72
2023/06/13 00:59:08;;;;;;;5.00;2.55;;;;;;;15.47;66.49;100165.28;5101032;28;20020;-72
2023/06/13 01:01:34;;;;;;;6.22;2.30;;;;;;;15.33;66.69;100149.72;5098538;28;20047;-72
2023/06/13 01:04:00;;;;;;;5.63;2.20;;;;;;;15.39;66.90;100159.91;5098857;28;20028;-72
2023/06/13 01:06:30;;;;;;;2.90;2.42;;;;;;;15.35;67.24;100154.97;5105248;28;20031;-73
2023/06/13 01:08:58;;;;;;;3.08;2.33;;;;;;;15.39;67.15;100164.44;5098682;28;20028;-73
2023/06/13 01:11:48;;;;;;;4.07;2.50;;;;;;;15.34;67.29;100156.81;5089041;28;20035;-73
2023/06/13 01:14:24;;;;;;;3.85;2.70;;;;;;;15.36;67.46;100157.53;5092571;28;20481;-69
2023/06/13 01:16:56;;;;;;;3.70;2.25;;;;;;;15.34;67.22;100151.41;5088175;28;20032;-69
2023/06/13 01:19:43;;;;;;;3.92;2.55;;;;;;;15.26;67.27;100148.69;5091571;28;20020;-69
2023/06/13 01:22:17;;;;;;;4.85;2.55;;;;;;;15.26;67.21;100145.16;5071883;28;20024;-69
2023/06/13 01:24:58;;;;;;;3.88;2.03;;;;;;;15.32;67.26;100164.22;5098732;28;20036;-69
2023/06/13 01:27:25;;;;;;;3.55;2.50;;;;;;;15.34;67.38;100158.66;5074268;28;20695;-69
2023/06/13 01:29:52;;;;;;;4.38;2.38;;;;;;;15.29;67.65;100159.16;5092142;28;20100;-70
2023/06/13 01:32:20;;;;;;;8.10;3.08;;;;;;;15.28;67.55;100157.47;5095243;28;20024;-69
2023/06/13 01:34:46;;;;;;;3.90;2.63;;;;;;;15.29;67.61;100159.16;5070774;28;20059;-70
2023/06/13 01:37:12;;;;;;;5.40;2.60;;;;;;;15.25;67.68;100147.00;5100527;28;20031;-69
2023/06/13 01:39:37;;;;;;;6.57;2.50;;;;;;;15.28;67.81;100162.03;5072170;28;20448;-69
2023/06/13 01:42:03;;;;;;;5.13;2.58;;;;;;;15.12;67.63;100135.88;5098606;28;20027;-69
2023/06/13 01:44:29;;;;;;;3.22;2.22;;;;;;;15.23;67.68;100154.47;5088271;28;20488;-69
2023/06/13 01:47:06;;;;;;;3.45;2.38;;;;;;;15.25;67.57;100149.72;5093726;28;20023;-69
2023/06/13 01:49:53;;;;;;;4.18;2.03;;;;;;;15.17;67.73;100140.75;5098931;28;20029;-69
2023/06/13 01:52:39;;;;;;;5.18;2.58;;;;;;;15.27;67.72;100152.25;5070121;28;20056;-69
2023/06/13 01:55:13;;;;;;;3.13;2.28;;;;;;;15.22;67.50;100144.66;5088993;28;20036;-69
2023/06/13 01:57:51;;;;;;;4.18;2.78;;;;;;;15.20;67.64;100148.53;5097981;28;20027;-69
2023/06/13 02:00:17;;;;;;;3.33;2.90;;;;;;;15.20;67.58;100138.59;5079579;28;20053;-69
2023/06/13 02:02:44;;;;;;;6.10;1.90;;;;;;;15.23;67.65;100142.81;5098631;28;20047;-69
2023/06/13 02:05:11;;;;;;;4.03;2.08;;;;;;;15.23;67.59;100142.81;5103249;28;20028;-69
2023/06/13 02:07:37;;;;;;;4.93;2.50;;;;;;;15.22;67.31;100144.66;5083814;28;20035;-68
2023/06/13 02:10:06;;;;;;;5.25;2.63;;;;;;;15.21;67.48;100140.25;5107068;28;20028;-68
2023/06/13 02:12:33;;;;;;;3.85;2.13;;;;;;;15.14;67.57;100127.59;5091985;28;20812;-68
2023/06/13 02:14:59;;;;;;;3.35;2.30;;;;;;;15.15;67.30;100130.13;5100150;28;20054;-68
2023/06/13 02:17:26;;;;;;;3.45;2.08;;;;;;;15.18;67.76;100134.34;5070709;28;20027;-68
2023/06/13 02:19:52;;;;;;;5.22;2.38;;;;;;;15.17;68.08;100136.22;5097240;28;20070;-72
2023/06/13 02:22:18;;;;;;;7.13;3.05;;;;;;;15.13;67.90;100126.72;5108045;28;20424;-72
2023/06/13 02:24:43;;;;;;;6.03;2.70;;;;;;;15.14;67.71;100136.56;5088093;28;20028;-72
2023/06/13 02:27:08;;;;;;;3.05;2.75;;;;;;;15.12;67.90;100135.88;5090833;28;20058;-72
2023/06/13 02:29:38;;;;;;;3.78;2.65;;;;;;;15.06;68.15;100122.19;5100323;28;20019;-72
2023/06/13 02:32:05;;;;;;;3.88;2.65;;;;;;;15.09;67.76;100130.78;5106026;28;20098;-72
2023/06/13 02:34:30;;;;;;;5.65;2.30;;;;;;;15.01;68.17;100117.28;5096899;28;20063;-68
2023/06/13 02:36:55;;;;;;;3.92;2.58;;;;;;;15.06;68.24;100133.81;5087232;28;20135;-68
2023/06/13 02:39:22;;;;;;;3.30;2.50;;;;;;;15.03;68.41;100123.34;5094195;28;20019;-69
2023/06/13 02:41:47;;;;;;;4.30;2.80;;;;;;;14.99;68.21;100119.31;5101400;28;20043;-68
2023/06/13 02:44:13;;;;;;;4.68;2.20;;;;;;;14.95;68.51;100127.91;5094726;28;20024;-68
2023/06/13 02:46:38;;;;;;;4.72;2.40;;;;;;;14.99;68.42;100126.59;5081420;28;20061;-68
2023/06/13 02:49:04;;;;;;;2.53;2.00;;;;;;;14.97;68.34;100126.75;5090590;28;20034;-68
2023/06/13 02:51:30;;;;;;;4.80;2.78;;;;;;;14.96;68.58;100135.03;5097012;28;20031;-68
2023/06/13 02:53:55;;;;;;;4.28;2.17;;;;;;;14.95;68.52;100134.16;5096309;28;20042;-68
2023/06/13 02:56:21;;;;;;;2.67;2.15;;;;;;;14.93;68.55;100138.06;5097239;28;20494;-68
2023/06/13 02:58:46;;;;;;;3.25;2.58;;;;;;;14.86;68.93;100124.34;5084330;28;20528;-69
2023/06/13 03:01:12;;;;;;;3.10;2.50;;;;;;;14.87;68.70;100127.91;5103070;28;20024;-68
2023/06/13 03:03:37;;;;;;;3.38;2.22;;;;;;;14.79;68.88;100123.34;5096936;28;20115;-69
2023/06/13 03:06:04;;;;;;;3.75;2.10;;;;;;;14.85;69.02;100133.47;5075398;28;20150;-69
2023/06/13 03:08:30;;;;;;;3.83;2.67;;;;;;;14.68;69.04;100107.47;5091093;28;20031;-69
2023/06/13 03:10:56;;;;;;;3.22;2.63;;;;;;;14.77;69.35;100130.75;5104031;28;20039;-69
2023/06/13 03:13:22;;;;;;;3.85;2.67;;;;;;;14.75;69.57;100131.94;5088007;28;20513;-69
2023/06/13 03:15:47;;;;;;;9.77;2.50;;;;;;;14.69;69.74;100133.44;5085381;28;20036;-69
2023/06/13 03:18:14;;;;;;;3.65;2.25;;;;;;;14.62;70.23;100131.56;5106740;28;20023;-69
2023/06/13 03:20:45;;;;;;;6.32;2.97;;;;;;;14.62;70.67;100132.41;5097993;28;20023;-69
2023/06/13 03:23:11;;;;;;;5.57;2.45;;;;;;;14.52;71.48;100125.47;5082694;28;20035;-69
2023/06/13 03:25:37;;;;;;;3.95;2.67;;;;;;;14.53;71.47;100133.41;5102065;28;20475;-69
2023/06/13 03:28:02;;;;;;;6.47;3.00;;;;;;;14.51;71.30;100137.28;5091436;28;20024;-68
2023/06/13 03:30:28;;;;;;;3.75;2.58;;;;;;;14.44;71.96;100138.94;5100124;28;20136;-69
2023/06/13 03:32:54;;;;;;;4.97;2.78;;;;;;;14.43;72.39;100140.78;5098999;28;20023;-69
2023/06/13 03:35:20;;;;;;;5.88;2.72;;;;;;;14.38;72.29;100132.31;5107792;28;20028;-69
2023/06/13 03:37:46;;;;;;;6.05;2.78;;;;;;;14.37;72.84;100137.88;5092509;28;20063;-69
2023/06/13 03:40:11;;;;;;;6.95;2.60;;;;;;;14.36;72.92;100128.97;5089784;28;20028;-68
2023/06/13 03:42:37;;;;;;;9.00;2.80;;;;;;;14.30;73.11;100121.53;5074534;28;20483;-69
2023/06/13 03:45:03;;;;;;;2.92;2.10;;;;;;;14.37;72.89;100125.25;5100668;28;20035;-69
2023/06/13 03:47:28;;;;;;;2.97;2.50;;;;;;;14.27;72.97;100108.34;5075788;28;20032;-68
2023/06/13 03:49:53;;;;;;;4.25;2.85;;;;;;;14.42;73.25;100131.03;5069223;28;20043;-69
2023/06/13 03:52:19;;;;;;;4.57;2.30;;;;;;;14.39;73.46;100123.25;5104846;28;20442;-69
2023/06/13 03:54:45;;;;;;;5.38;2.40;;;;;;;14.48;72.82;100127.63;5094354;28;20020;-69
2023/06/13 03:57:12;;;;;;;6.88;2.58;;;;;;;14.57;72.90;100134.75;5087298;28;20181;-69
2023/06/13 03:59:38;;;;;;;3.90;3.30;;;;;;;14.61;72.94;100129.88;5087287;28;20459;-69
2023/06/13 04:02:04;;;;;;;5.97;2.72;;;;;;;14.62;72.77;100129.72;5093042;28;20038;-70
2023/06/13 04:04:29;;;;;;;4.63;3.05;;;;;;;14.65;72.65;100120.44;5087455;28;20027;-69
2023/06/13 04:06:55;;;;;;;4.90;2.95;;;;;;;14.79;72.36;100122.47;5087949;28;20058;-69
2023/06/13 04:09:22;;;;;;;10.82;3.13;;;;;;;14.82;72.63;100123.00;5094302;28;20028;-70
2023/06/13 04:11:48;;;;;;;5.35;2.42;;;;;;;14.85;72.32;100117.28;5070321;28;20038;-69
2023/06/13 04:14:13;;;;;;;4.05;2.40;;;;;;;14.90;72.29;100120.31;5087385;28;20027;-69
2023/06/13 04:16:39;;;;;;;4.18;2.40;;;;;;;14.90;71.77;100109.50;5089383;28;20052;-69
2023/06/13 04:19:04;;;;;;;5.53;2.70;;;;;;;15.10;71.61;100135.22;5087814;28;20479;-68
2023/06/13 04:21:30;;;;;;;4.30;2.75;;;;;;;15.13;71.10;100128.63;5090935;28;20043;-69
2023/06/13 04:23:56;;;;;;;4.35;2.50;;;;;;;15.21;70.86;100121.34;5068618;28;20020;-69
2023/06/13 04:26:23;;;;;;;4.25;2.55;;;;;;;15.28;70.94;100125.06;5089414;28;20073;-69
2023/06/13 04:28:50;;;;;;;5.15;2.60;;;;;;;15.33;71.05;100130.81;5090784;28;20085;-68
2023/06/13 04:31:17;;;;;;;3.67;2.65;;;;;;;15.32;71.08;100114.78;5076583;28;20475;-68
2023/06/13 04:33:44;;;;;;;6.75;2.50;;;;;;;15.44;71.04;100127.78;5096326;28;20073;-68
2023/06/13 04:36:13;;;;;;;4.68;2.10;;;;;;;15.49;70.17;100116.47;5090339;28;20051;-68
2023/06/13 04:38:39;;;;;;;7.80;2.50;;;;;;;15.61;69.51;100126.75;5094621;28;20041;-71
2023/06/13 04:41:10;;;;;;;3.67;1.85;;;;;;;15.64;69.57;100133.69;5107396;28;20022;-71
2023/06/13 04:43:41;;;;;;;3.85;2.30;;;;;;;15.75;69.02;100142.28;5097736;28;20095;-71
2023/06/13 04:46:10;;;;;;;4.18;2.25;;;;;;;15.81;68.26;100144.28;5097760;28;20111;-71
2023/06/13 04:48:36;;;;;;;4.50;2.53;;;;;;;15.83;68.24;100139.56;5106613;28;20054;-72
2023/06/13 04:51:03;;;;;;;5.75;2.63;;;;;;;15.99;67.65;100151.38;5103118;28;20057;-71
2023/06/13 04:53:30;;;;;;;2.97;1.77;;;;;;;16.04;67.31;100147.13;5105329;28;20475;-71
2023/06/13 04:55:57;;;;;;;5.57;2.17;;;;;;;16.19;66.85;100153.50;5079210;28;20028;-72
2023/06/13 04:58:23;;;;;;;2.70;2.35;;;;;;;16.24;66.63;100147.53;5096160;28;20030;-72
2023/06/13 05:00:52;;;;;;;3.83;2.17;;;;;;;16.40;65.84;100150.19;5106707;28;20449;-72
2023/06/13 05:03:20;;;;;;;5.97;2.13;;;;;;;16.53;64.87;100150.50;5103728;28;20026;-72
2023/06/13 05:05:46;;;;;;;3.58;2.00;;;;;;;16.64;64.52;100152.81;5099040;28;20031;-71
2023/06/13 05:08:19;;;;;;;3.88;2.40;;;;;;;16.73;64.46;100151.78;5087144;28;20027;-72
2023/06/13 05:10:45;;;;;;;7.78;2.40;;;;;;;16.74;63.97;100146.19;5098782;28;20047;-72
2023/06/13 05:13:12;;;;;;;4.78;2.22;;;;;;;16.89;64.01;100149.78;5100989;28;20055;-72
2023/06/13 05:15:47;;;;;;;3.63;2.15;;;;;;;16.94;63.10;100139.28;5102784;28;20031;-71
2023/06/13 05:18:12;;;;;;;4.18;2.22;;;;;;;16.96;62.36;100130.97;5100073;28;20123;-71
2023/06/13 05:20:41;;;;;;;3.55;2.38;;;;;;;17.14;62.43;100150.47;5097110;28;20016;-71
2023/06/13 05:23:13;;;;;;;4.13;2.20;;;;;;;17.19;61.22;100150.78;5082574;28;20030;-72
2023/06/13 05:25:38;;;;;;;3.50;1.75;;;;;;;17.25;61.14;100144.63;5100990;28;20040;-72
2023/06/13 05:28:04;;;;;;;3.95;2.38;;;;;;;17.29;61.86;100140.53;5104873;28;20093;-72
2023/06/13 05:30:30;;;;;;;4.15;2.17;;;;;;;17.40;60.78;100142.78;5108175;28;20392;-72
2023/06/13 05:32:56;;;;;;;3.40;2.25;;;;;;;17.48;60.31;100142.78;5099771;28;20031;-72
2023/06/13 05:35:22;;;;;;;4.32;1.55;;;;;;;17.52;60.27;100144.94;5102012;28;20348;-72
2023/06/13 05:37:49;;;;;;;4.60;2.05;;;;;;;17.60;59.64;100146.72;5094434;28;20027;-72
2023/06/13 05:40:14;;;;;;;5.05;2.40;;;;;;;17.69;58.66;100149.19;5102817;28;20506;-72
2023/06/13 05:42:40;;;;;;;4.72;2.20;;;;;;;17.74;58.59;100137.78;5082035;28;20063;-72
2023/06/13 05:45:07;;;;;;;3.38;1.85;;;;;;;17.76;58.50;100141.13;5101482;28;20770;-72
2023/06/13 05:47:33;;;;;;;4.20;1.75;;;;;;;17.76;57.66;100136.56;5105874;28;20080;-72
2023/06/13 05:49:59;;;;;;;2.53;1.67;;;;;;;17.92;57.37;100151.81;5081021;28;20289;-72
2023/06/13 05:52:25;;;;;;;4.45;1.70;;;;;;;17.95;57.32;100144.16;5106335;28;20019;-72
2023/06/13 05:54:51;;;;;;;4.75;1.50;;;;;;;17.91;56.74;100133.88;5095830;28;20028;-72
2023/06/13 05:57:16;;;;;;;4.13;1.58;;;;;;;18.02;56.86;100133.38;5109208;28;20073;-72
2023/06/13 05:59:42;;;;;;;3.95;1.50;;;;;;;18.14;56.80;100142.75;5101488;28;20068;-72
2023/06/13 06:02:09;;;;;;;1.83;1.73;;;;;;;18.20;56.25;100139.31;5103160;28;20455;-72
2023/06/13 06:04:35;;;;;;;3.83;1.50;;;;;;;18.25;55.58;100141.47;5108730;28;20027;-72
2023/06/13 06:07:00;;;;;;;5.05;1.95;;;;;;;18.30;55.80;100144.44;5080035;28;20032;-73
2023/06/13 06:09:26;;;;;;;3.65;1.40;;;;;;;18.31;55.30;100136.09;5100843;28;20103;-73
2023/06/13 06:11:52;;;;;;;2.85;1.58;;;;;;;18.26;55.38;100116.84;5104051;28;20076;-73
2023/06/13 06:14:18;;;;;;;6.05;1.52;;;;;;;18.42;55.63;100130.25;5108234;28;20031;-73
2023/06/13 06:16:43;;;;;;;3.08;1.60;;;;;;;18.45;55.55;100123.56;5101354;28;20498;-73
2023/06/13 06:19:09;;;;;;;1.73;1.38;;;;;;;18.48;54.16;100125.91;5106578;28;20027;-73
2023/06/13 06:21:35;;;;;;;2.80;1.40;;;;;;;18.53;53.74;100145.19;5105847;28;20019;-73
2023/06/13 06:24:01;;;;;;;3.63;1.70;;;;;;;18.52;53.70;100136.22;5097023;28;20023;-73
2023/06/13 06:26:26;;;;;;;2.88;1.60;;;;;;;18.58;53.46;100140.03;5106428;28;20514;-73
2023/06/13 06:28:52;;;;;;;4.43;2.00;;;;;;;18.61;53.26;100126.94;5104054;28;20036;-73
2023/06/13 06:31:18;;;;;;;2.83;1.48;;;;;;;18.67;53.38;100136.19;5106883;28;20456;-74
2023/06/13 06:33:43;;;;;;;2.47;1.50;;;;;;;18.74;53.30;100129.81;5088495;28;20081;-74
2023/06/13 06:36:09;;;;;;;3.80;1.83;;;;;;;18.84;52.79;100134.91;5101326;28;20019;-74
2023/06/13 06:38:35;;;;;;;3.38;1.52;;;;;;;18.86;52.51;100119.28;5098528;28;20047;-74
2023/06/13 06:41:00;;;;;;;4.72;1.90;;;;;;;18.89;52.13;100117.00;5106634;28;20035;-73
2023/06/13 06:43:25;;;;;;;3.15;1.63;;;;;;;18.91;51.81;100117.66;5104723;28;20032;-74
2023/06/13 06:45:51;;;;;;;7.18;2.13;;;;;;;19.10;52.07;100137.91;5101436;28;20054;-74
2023/06/13 06:48:17;;;;;;;5.57;2.17;;;;;;;19.20;51.92;100143.88;5105084;28;20026;-73
2023/06/13 06:50:42;;;;;;;3.42;1.80;;;;;;;19.24;51.71;100137.84;5098535;28;20022;-74
2023/06/13 06:53:07;;;;;;;4.80;1.83;;;;;;;19.37;51.60;100140.72;5109998;28;20031;-74
2023/06/13 06:55:33;;;;;;;2.42;1.70;;;;;;;19.43;51.08;100136.38;5105359;28;20023;-74
2023/06/13 06:57:58;;;;;;;3.17;1.63;;;;;;;19.43;50.56;100123.63;5101341;28;20064;-74
2023/06/13 07:00:24;;;;;;;2.65;1.48;;;;;;;19.63;49.46;100134.66;5103591;28;21593;-74
2023/06/13 07:02:49;;;;;;;2.70;1.63;;;;;;;19.69;49.29;100129.28;5102893;28;20016;-73
2023/06/13 07:05:15;;;;;;;2.78;1.67;;;;;;;19.72;49.81;100131.63;5105617;28;20026;-74
2023/06/13 07:07:42;;;;;;;1.70;1.25;;;;;;;19.67;49.83;100115.03;5099767;28;20038;-74
2023/06/13 07:10:08;;;;;;;2.67;1.60;;;;;;;19.67;50.18;100120.47;5102728;28;20020;-74
2023/06/13 07:12:34;;;;;;;6.55;1.85;;;;;;;19.74;50.48;100126.81;5104454;28;20031;-74
2023/06/13 07:15:00;;;;;;;3.58;1.80;;;;;;;19.78;49.74;100130.84;5082622;28;20491;-74
2023/06/13 07:17:26;;;;;;;2.10;1.58;;;;;;;19.81;49.65;100121.41;5100508;28;20032;-74
2023/06/13 07:19:51;;;;;;;2.20;1.50;;;;;;;19.77;49.66;100117.41;5100501;28;20025;-74
2023/06/13 07:22:17;;;;;;;2.15;1.58;;;;;;;19.76;49.31;100115.72;5100136;28;20426;-74
2023/06/13 07:24:42;;;;;;;2.97;1.67;;;;;;;19.79;48.95;100121.63;5103330;28;20032;-74
2023/06/13 07:27:08;;;;;;;2.50;2.17;;;;;;;19.81;49.14;100125.00;5104804;28;20122;-74
2023/06/13 07:29:34;;;;;;;2.60;1.77;;;;;;;19.79;49.18;100113.44;5097000;28;20043;-74
2023/06/13 07:32:03;;;;;;;2.00;1.50;;;;;;;19.90;48.21;100121.06;5100430;28;20063;-74
2023/06/13 07:34:29;;;;;;;2.05;1.80;;;;;;;19.81;48.65;100091.47;5101992;28;20028;-74
2023/06/13 07:36:54;;;;;;;1.88;1.40;;;;;;;20.04;48.53;100111.09;5100031;28;20034;-74
2023/06/13 07:39:20;;;;;;;2.60;1.52;;;;;;;20.03;48.69;100110.25;5097828;28;20110;-73
2023/06/13 07:41:48;;;;;;;2.38;1.73;;;;;;;20.10;48.10;100113.03;5097180;28;20957;-73
2023/06/13 07:44:14;;;;;;;4.82;1.50;;;;;;;20.09;47.99;100117.63;5095028;28;20052;-74
2023/06/13 07:46:40;;;;;;;5.25;2.05;;;;;;;20.11;47.05;100112.88;5097074;28;20066;-74
2023/06/13 07:49:05;;;;;;;3.20;1.42;;;;;;;20.15;47.42;100118.72;5102185;28;20106;-74
2023/06/13 07:51:31;;;;;;;2.30;1.80;;;;;;;20.12;47.85;100103.63;5098263;28;20035;-73
2023/06/13 07:53:56;;;;;;;2.60;1.75;;;;;;;20.16;47.66;100095.91;5103016;28;20114;-74
2023/06/13 07:56:22;;;;;;;3.33;2.47;;;;;;;20.34;47.35;100111.72;5101615;28;20144;-73
2023/06/13 07:58:47;;;;;;;3.25;1.83;;;;;;;20.34;47.28;100111.72;5104226;28;20035;-74
2023/06/13 08:01:13;;;;;;;2.13;1.70;;;;;;;20.39;47.10;100115.53;5102417;28;20035;-74
2023/06/13 08:03:38;;;;;;;2.15;1.63;;;;;;;20.41;47.03;100110.69;5104225;28;20024;-74
2023/06/13 08:06:04;;;;;;;2.70;1.88;;;;;;;20.45;46.90;100119.31;5105663;28;20039;-74
2023/06/13 08:08:30;;;;;;;2.78;1.52;;;;;;;20.48;46.65;100106.13;5099625;28;20380;-74
2023/06/13 08:10:56;;;;;;;3.78;2.05;;;;;;;20.49;46.90;100105.09;5100527;28;20043;-74
2023/06/13 08:13:22;;;;;;;4.03;1.90;;;;;;;20.53;47.16;100100.91;5104167;28;20045;-73
2023/06/13 08:15:48;;;;;;;6.88;2.10;;;;;;;20.60;46.61;100101.75;5098075;28;20047;-74
2023/06/13 08:18:14;;;;;;;5.45;1.70;;;;;;;20.67;45.66;100109.97;5079852;28;20028;-74
2023/06/13 08:20:39;;;;;;;2.22;1.77;;;;;;;20.76;45.20;100100.56;5099982;28;20027;-75
2023/06/13 08:23:05;;;;;;;2.92;1.90;;;;;;;20.71;45.61;100075.81;5099477;28;20596;-75
2023/06/13 08:25:30;;;;;;;4.43;1.67;;;;;;;20.81;45.29;100095.34;5103500;28;20028;-74
2023/06/13 08:27:56;;;;;;;2.40;1.60;;;;;;;20.82;44.49;100095.13;5107274;28;20080;-74
2023/06/13 08:30:21;;;;;;;2.38;1.70;;;;;;;20.88;44.86;100096.19;5101602;28;20031;-74
2023/06/13 08:32:48;;;;;;;2.88;1.80;;;;;;;20.87;45.04;100094.50;5096997;28;20046;-74
2023/06/13 08:35:13;;;;;;;4.28;1.70;;;;;;;20.85;45.01;100094.72;5086937;28;20129;-75
2023/06/13 08:37:39;;;;;;;3.90;2.00;;;;;;;20.86;44.84;100096.38;5080014;28;20498;-74
2023/06/13 08:40:09;;;;;;;3.78;2.42;;;;;;;20.91;44.75;100101.22;5096297;28;20051;-75
2023/06/13 08:42:36;;;;;;;4.07;2.15;;;;;;;20.92;44.30;100092.84;5102022;28;20442;-75
2023/06/13 08:45:02;;;;;;;2.45;1.60;;;;;;;20.87;44.19;100095.38;5100717;28;20039;-74
2023/06/13 08:47:28;;;;;;;5.68;1.90;;;;;;;20.84;44.18;100090.31;5098749;28;21924;-75
2023/06/13 08:49:54;;;;;;;2.80;1.60;;;;;;;20.90;44.20;100085.94;5094071;28;20102;-75
2023/06/13 08:52:20;;;;;;;6.00;2.03;;;;;;;20.82;44.15;100075.19;5098401;28;20076;-75
2023/06/13 08:54:55;;;;;;;1.90;1.63;;;;;;;20.92;44.39;100097.47;5101022;28;20394;-75
2023/06/13 08:57:24;;;;;;;5.53;1.75;;;;;;;20.91;44.59;100087.59;5091283;28;20035;-75
2023/06/13 08:59:52;;;;;;;5.60;1.90;;;;;;;20.94;43.98;100088.06;5096072;28;20019;-75
2023/06/13 09:02:24;;;;;;;3.50;2.17;;;;;;;20.87;43.63;100089.91;5097468;28;20024;-75
2023/06/13 09:04:51;;;;;;;1.67;1.58;;;;;;;20.86;43.48;100084.66;5086802;28;20023;-75
2023/06/13 09:07:18;;;;;;;3.95;1.77;;;;;;;20.89;43.77;100084.25;5096829;28;20020;-75
2023/06/13 09:09:44;;;;;;;2.33;1.48;;;;;;;20.96;43.49;100090.59;5095636;28;20051;-75
2023/06/13 09:12:13;;;;;;;7.03;1.95;;;;;;;20.94;43.49;100084.50;5096747;28;20023;-75
2023/06/13 09:14:39;;;;;;;3.95;1.65;;;;;;;21.08;42.94;100102.53;5100670;28;20028;-75
2023/06/13 09:17:05;;;;;;;1.58;1.35;;;;;;;21.11;41.47;100092.06;5093287;28;20043;-75
2023/06/13 09:19:31;;;;;;;1.55;1.40;;;;;;;21.25;41.42;100101.13;5099721;28;20028;-75
2023/06/13 09:21:56;;;;;;;4.00;1.63;;;;;;;21.26;42.06;100103.66;5096062;28;20024;-75
2023/06/13 09:24:24;;;;;;;2.15;1.50;;;;;;;21.30;42.00;100104.06;5097118;28;20024;-76
2023/06/13 09:26:50;;;;;;;6.32;2.00;;;;;;;21.27;41.76;100093.56;5100021;28;20044;-76
2023/06/13 09:29:16;;;;;;;3.08;1.40;;;;;;;21.28;41.41;100092.53;5092687;28;20399;-75
2023/06/13 09:31:41;;;;;;;5.15;1.55;;;;;;;21.24;41.09;100100.28;5094391;28;20076;-75
2023/06/13 09:34:06;;;;;;;3.08;1.75;;;;;;;21.21;41.22;100078.88;5097483;28;20035;-75
2023/06/13 09:36:35;;;;;;;2.20;1.40;;;;;;;21.27;41.46;100096.28;5100001;28;20024;-75
2023/06/13 09:39:03;;;;;;;4.45;1.55;;;;;;;21.26;40.83;100076.38;5094619;28;20028;-76
2023/06/13 09:41:31;;;;;;;1.83;1.13;;;;;;;21.36;41.22;100100.50;5090852;28;20020;-75
2023/06/13 09:43:57;;;;;;;2.22;1.83;;;;;;;21.40;40.34;100099.00;5101909;28;20368;-75
2023/06/13 09:46:26;;;;;;;2.47;1.40;;;;;;;21.40;40.52;100097.13;5094533;28;20052;-75
2023/06/13 09:48:52;;;;;;;2.08;1.10;;;;;;;21.41;40.73;100096.06;5081607;28;20126;-75
2023/06/13 09:51:17;;;;;;;1.65;1.40;;;;;;;21.40;40.89;100099.00;5091568;28;20106;-75
2023/06/13 09:53:47;;;;;;;2.30;1.50;;;;;;;21.38;40.65;100082.03;5101769;28;20019;-75
2023/06/13 09:56:12;;;;;;;1.60;1.20;;;;;;;21.46;40.71;100090.00;5102240;28;20024;-71
2023/06/13 09:58:40;;;;;;;2.53;1.55;;;;;;;21.44;40.33;100095.66;5105533;28;20223;-70
2023/06/13 10:01:12;;;;;;;2.38;1.67;;;;;;;21.49;40.23;100097.75;5100093;28;20378;-70
2023/06/13 10:03:37;;;;;;;2.58;1.33;;;;;;;21.49;39.54;100097.75;5080158;28;20398;-70
2023/06/13 10:06:03;;;;;;;1.95;1.27;;;;;;;21.54;39.39;100087.88;5071979;28;20016;-70
2023/06/13 10:08:46;;;;;;;4.40;1.35;;;;;;;21.55;39.82;100081.41;5094153;28;20032;-70
2023/06/13 10:11:21;;;;;;;6.93;1.50;;;;;;;21.46;39.76;100059.97;5101608;28;20039;-70
2023/06/13 10:14:15;;;;;;;2.38;1.25;;;;;;;21.59;39.84;100082.66;5083264;28;20485;-71
2023/06/13 10:16:53;;;;;;;5.10;1.58;;;;;;;21.57;40.27;100083.91;5087351;28;20036;-70
2023/06/13 10:19:19;;;;;;;1.60;1.30;;;;;;;21.61;39.69;100076.97;5088001;28;20030;-70
2023/06/13 10:21:46;;;;;;;8.77;1.65;;;;;;;21.63;39.81;100080.31;5081716;28;20028;-71
2023/06/13 10:24:13;;;;;;;2.10;1.35;;;;;;;21.56;38.91;100065.84;5101817;28;20032;-75
2023/06/13 10:26:44;;;;;;;2.13;1.58;;;;;;;21.62;39.04;100068.59;5100388;28;20039;-75
2023/06/13 10:29:33;;;;;;;2.22;1.60;;;;;;;21.72;38.75;100066.25;5101995;28;20024;-75
2023/06/13 10:32:17;;;;;;;2.03;1.70;;;;;;;21.80;38.32;100076.16;5099884;28;20089;-75
2023/06/13 10:35:04;;;;;;;4.55;1.38;;;;;;;21.83;37.96;100064.81;5100873;28;20043;-75
2023/06/13 10:38:17;;;;;;;3.50;1.40;;;;;;;21.85;38.45;100063.53;5099348;28;20027;-76
2023/06/13 10:41:38;;;;;;;2.97;2.10;;;;;;;21.83;39.01;100056.63;5084032;28;20028;-75
2023/06/13 10:44:10;;;;;;;3.13;1.67;;;;;;;21.95;39.11;100065.81;4982484;28;20768;-76
2023/06/13 10:46:37;;;;;;;4.28;1.50;;;;;;;21.99;39.01;100067.91;5065433;28;20134;-76
2023/06/13 10:49:02;;;;;;;3.00;1.90;;;;;;;22.01;39.00;100064.97;5104295;28;20024;-76
2023/06/13 10:51:32;;;;;;;2.05;1.60;;;;;;;22.06;38.62;100068.72;5105251;28;20760;-76
2023/06/13 10:54:03;;;;;;;2.35;1.42;;;;;;;22.07;38.94;100064.97;5104744;28;20436;-75
2023/06/13 10:56:31;;;;;;;2.83;1.75;;;;;;;22.05;39.33;100064.31;5104945;28;20051;-76
2023/06/13 10:59:16;;;;;;;3.25;1.48;;;;;;;22.09;39.12;100056.53;5099104;28;20027;-75
2023/06/13 11:01:43;;;;;;;3.33;1.38;;;;;;;22.10;39.42;100050.03;5094464;28;20024;-76
2023/06/13 11:04:19;;;;;;;3.22;1.25;;;;;;;22.16;39.54;100043.69;5099409;28;20368;-76
2023/06/13 11:06:47;;;;;;;2.95;1.90;;;;;;;22.30;38.96;100045.31;5100396;28;20028;-76
2023/06/13 11:09:18;;;;;;;2.28;1.52;;;;;;;22.38;38.99;100052.44;5103921;28;20020;-76
2023/06/13 11:11:54;;;;;;;2.65;1.27;;;;;;;22.37;39.24;100050.75;5080671;28;20032;-76
2023/06/13 11:14:24;;;;;;;3.90;1.67;;;;;;;22.41;38.93;100043.81;5104879;28;20058;-76
2023/06/13 11:16:50;;;;;;;4.05;2.10;;;;;;;22.33;39.51;100040.28;5099687;28;20032;-76
2023/06/13 11:19:17;;;;;;;2.30;1.92;;;;;;;22.36;38.98;100041.72;5095091;28;20429;-76
2023/06/13 11:21:49;;;;;;;2.40;1.58;;;;;;;22.29;39.58;100043.66;5085078;28;20115;-76
2023/06/13 11:24:15;;;;;;;3.28;1.60;;;;;;;22.25;39.47;100039.69;5101896;28;20031;-76
2023/06/13 11:26:42;;;;;;;3.70;1.58;;;;;;;22.24;39.69;100037.97;5099276;28;20044;-76